sensor_id;sensor_type;location;lat;lon;timestamp;temperature;humidity
42187;DHT22;27858;51.414;0.018;2023-11-21T00:00:00;11.40;99.90
42187;DHT22;27858;51.414;0.018;2023-11-21T00:02:27;11.40;99.90
42187;DHT22;27858;51.414;0.018;2023-11-21T00:04:54;11.40;99.90
42187;DHT22;27858;51.414;0.018;2023-11-21T00:07:21;11.50;99.90
42187;DHT22;27858;51.414;0.018;2023-11-21T00:09:48;11.50;99.90
42187;DHT22;27858;51.414;0.018;2023-11-21T00:12:15;11.40;99.90
42187;DHT22;27858;51.414;0.018;2023-11-21T00:14:43;11.40;99.90
42187;DHT22;27858;51.414;0.018;2023-11-21T00:17:10;11.40;99.90
42187;DHT22;27858;51.414;0.018;2023-11-21T00:19:37;11.40;99.90
42187;DHT22;27858;51.414;0.018;2023-11-21T00:22:04;11.40;99.90
42187;DHT22;27858;51.414;0.018;2023-11-21T00:24:30;11.50;99.90
42187;DHT22;27858;51.414;0.018;2023-11-21T00:26:58;11.60;99.90
42187;DHT22;27858;51.414;0.018;2023-11-21T00:29:25;11.50;99.90
42187;DHT22;27858;51.414;0.018;2023-11-21T00:31:52;11.60;99.90
42187;DHT22;27858;51.414;0.018;2023-11-21T00:34:19;11.60;99.90
42187;DHT22;27858;51.414;0.018;2023-11-21T00:36:46;11.50;99.90
42187;DHT22;27858;51.414;0.018;2023-11-21T00:39:13;11.50;99.90
42187;DHT22;27858;51.414;0.018;2023-11-21T00:41:43;11.50;99.90
42187;DHT22;27858;51.414;0.018;2023-11-21T00:44:11;11.50;99.90
42187;DHT22;27858;51.414;0.018;2023-11-21T00:46:38;11.50;99.90
42187;DHT22;27858;51.414;0.018;2023-11-21T00:49:05;11.40;99.90
42187;DHT22;27858;51.414;0.018;2023-11-21T00:51:32;11.50;99.90
42187;DHT22;27858;51.414;0.018;2023-11-21T00:53:59;11.50;99.90
42187;DHT22;27858;51.414;0.018;2023-11-21T00:56:27;11.50;99.90
42187;DHT22;27858;51.414;0.018;2023-11-21T00:58:54;11.60;99.90
42187;DHT22;27858;51.414;0.018;2023-11-21T01:01:21;11.50;99.90
42187;DHT22;27858;51.414;0.018;2023-11-21T01:03:49;11.50;99.90
42187;DHT22;27858;51.414;0.018;2023-11-21T01:06:17;11.50;99.90
42187;DHT22;27858;51.414;0.018;2023-11-21T01:08:44;11.50;99.90
42187;DHT22;27858;51.414;0.018;2023-11-21T01:11:11;11.50;99.90
42187;DHT22;27858;51.414;0.018;2023-11-21T01:13:39;11.50;99.90
42187;DHT22;27858;51.414;0.018;2023-11-21T01:16:07;11.50;99.90
42187;DHT22;27858;51.414;0.018;2023-11-21T01:18:35;11.60;99.90
42187;DHT22;27858;51.414;0.018;2023-11-21T01:21:02;11.60;99.90
42187;DHT22;27858;51.414;0.018;2023-11-21T01:23:30;11.60;99.90
42187;DHT22;27858;51.414;0.018;2023-11-21T01:25:57;11.60;99.90
42187;DHT22;27858;51.414;0.018;2023-11-21T01:28:24;11.50;99.90
42187;DHT22;27858;51.414;0.018;2023-11-21T01:30:51;11.50;99.90
42187;DHT22;27858;51.414;0.018;2023-11-21T01:33:19;11.60;99.90
42187;DHT22;27858;51.414;0.018;2023-11-21T01:35:46;11.60;99.90
42187;DHT22;27858;51.414;0.018;2023-11-21T01:38:15;11.50;99.90
42187;DHT22;27858;51.414;0.018;2023-11-21T01:40:44;11.60;99.90
42187;DHT22;27858;51.414;0.018;2023-11-21T01:43:11;11.50;99.90
42187;DHT22;27858;51.414;0.018;2023-11-21T01:45:38;11.50;99.90
42187;DHT22;27858;51.414;0.018;2023-11-21T01:48:06;11.50;99.90
42187;DHT22;27858;51.414;0.018;2023-11-21T01:50:33;11.50;99.90
42187;DHT22;27858;51.414;0.018;2023-11-21T01:53:00;11.50;99.90
42187;DHT22;27858;51.414;0.018;2023-11-21T01:55:29;11.50;99.90
42187;DHT22;27858;51.414;0.018;2023-11-21T01:57:56;11.60;99.90
42187;DHT22;27858;51.414;0.018;2023-11-21T02:00:24;11.70;99.90
42187;DHT22;27858;51.414;0.018;2023-11-21T02:02:52;11.60;99.90
42187;DHT22;27858;51.414;0.018;2023-11-21T02:05:20;11.60;99.90
42187;DHT22;27858;51.414;0.018;2023-11-21T02:07:48;11.60;99.90
42187;DHT22;27858;51.414;0.018;2023-11-21T02:10:15;11.70;99.90
42187;DHT22;27858;51.414;0.018;2023-11-21T02:12:43;11.70;99.90
42187;DHT22;27858;51.414;0.018;2023-11-21T02:15:13;11.60;99.90
42187;DHT22;27858;51.414;0.018;2023-11-21T02:17:50;11.70;99.90
42187;DHT22;27858;51.414;0.018;2023-11-21T02:20:22;11.70;99.90
42187;DHT22;27858;51.414;0.018;2023-11-21T02:22:54;11.80;99.90
42187;DHT22;27858;51.414;0.018;2023-11-21T02:25:28;11.70;99.90
42187;DHT22;27858;51.414;0.018;2023-11-21T02:28:05;11.80;99.90
42187;DHT22;27858;51.414;0.018;2023-11-21T02:30:33;11.70;99.90
42187;DHT22;27858;51.414;0.018;2023-11-21T02:33:01;11.80;99.90
42187;DHT22;27858;51.414;0.018;2023-11-21T02:35:29;11.70;99.90
42187;DHT22;27858;51.414;0.018;2023-11-21T02:37:58;11.70;99.90
42187;DHT22;27858;51.414;0.018;2023-11-21T02:40:24;11.70;99.90
42187;DHT22;27858;51.414;0.018;2023-11-21T02:42:53;11.70;99.90
42187;DHT22;27858;51.414;0.018;2023-11-21T02:45:20;11.60;99.90
42187;DHT22;27858;51.414;0.018;2023-11-21T02:47:48;11.60;99.90
42187;DHT22;27858;51.414;0.018;2023-11-21T02:50:20;11.70;99.90
42187;DHT22;27858;51.414;0.018;2023-11-21T02:52:47;11.60;99.90
42187;DHT22;27858;51.414;0.018;2023-11-21T02:55:14;11.50;99.90
42187;DHT22;27858;51.414;0.018;2023-11-21T02:57:41;11.70;99.90
42187;DHT22;27858;51.414;0.018;2023-11-21T03:00:08;11.60;99.90
42187;DHT22;27858;51.414;0.018;2023-11-21T03:02:36;11.50;99.90
42187;DHT22;27858;51.414;0.018;2023-11-21T03:05:07;11.50;99.90
42187;DHT22;27858;51.414;0.018;2023-11-21T03:07:39;11.60;99.90
42187;DHT22;27858;51.414;0.018;2023-11-21T03:10:07;11.60;99.90
42187;DHT22;27858;51.414;0.018;2023-11-21T03:12:41;11.40;99.90
42187;DHT22;27858;51.414;0.018;2023-11-21T03:15:08;11.50;99.90
42187;DHT22;27858;51.414;0.018;2023-11-21T03:17:35;11.50;99.90
42187;DHT22;27858;51.414;0.018;2023-11-21T03:20:03;11.40;99.90
42187;DHT22;27858;51.414;0.018;2023-11-21T03:22:31;11.50;99.90
42187;DHT22;27858;51.414;0.018;2023-11-21T03:24:58;11.40;99.90
42187;DHT22;27858;51.414;0.018;2023-11-21T03:27:25;11.50;99.90
42187;DHT22;27858;51.414;0.018;2023-11-21T03:29:52;11.60;99.90
42187;DHT22;27858;51.414;0.018;2023-11-21T03:32:18;11.40;99.90
42187;DHT22;27858;51.414;0.018;2023-11-21T03:34:56;11.50;99.90
42187;DHT22;27858;51.414;0.018;2023-11-21T03:37:25;11.40;99.90
42187;DHT22;27858;51.414;0.018;2023-11-21T03:39:56;11.50;99.90
42187;DHT22;27858;51.414;0.018;2023-11-21T03:42:23;11.30;99.90
42187;DHT22;27858;51.414;0.018;2023-11-21T03:44:53;11.50;99.90
42187;DHT22;27858;51.414;0.018;2023-11-21T03:47:20;11.30;99.90
42187;DHT22;27858;51.414;0.018;2023-11-21T03:49:49;11.50;99.90
42187;DHT22;27858;51.414;0.018;2023-11-21T03:52:16;11.30;99.90
42187;DHT22;27858;51.414;0.018;2023-11-21T03:54:43;11.30;99.90
42187;DHT22;27858;51.414;0.018;2023-11-21T03:57:10;11.30;99.90
42187;DHT22;27858;51.414;0.018;2023-11-21T03:59:40;11.40;99.90
42187;DHT22;27858;51.414;0.018;2023-11-21T04:02:08;11.40;99.90
42187;DHT22;27858;51.414;0.018;2023-11-21T04:04:37;11.30;99.90
42187;DHT22;27858;51.414;0.018;2023-11-21T04:07:04;11.50;99.90
42187;DHT22;27858;51.414;0.018;2023-11-21T04:09:31;11.50;99.90
42187;DHT22;27858;51.414;0.018;2023-11-21T04:11:58;11.40;99.90
42187;DHT22;27858;51.414;0.018;2023-11-21T04:14:25;11.50;99.90
42187;DHT22;27858;51.414;0.018;2023-11-21T04:16:51;11.50;99.90
42187;DHT22;27858;51.414;0.018;2023-11-21T04:19:18;11.40;99.90
42187;DHT22;27858;51.414;0.018;2023-11-21T04:21:45;11.50;99.90
42187;DHT22;27858;51.414;0.018;2023-11-21T04:24:12;11.40;99.90
42187;DHT22;27858;51.414;0.018;2023-11-21T04:26:39;11.40;99.90
42187;DHT22;27858;51.414;0.018;2023-11-21T04:29:06;11.40;99.90
42187;DHT22;27858;51.414;0.018;2023-11-21T04:31:33;11.30;99.90
42187;DHT22;27858;51.414;0.018;2023-11-21T04:33:59;11.40;99.90
42187;DHT22;27858;51.414;0.018;2023-11-21T04:36:26;11.40;99.90
42187;DHT22;27858;51.414;0.018;2023-11-21T04:38:53;11.40;99.90
42187;DHT22;27858;51.414;0.018;2023-11-21T04:41:20;11.40;99.90
42187;DHT22;27858;51.414;0.018;2023-11-21T04:43:47;11.30;99.90
42187;DHT22;27858;51.414;0.018;2023-11-21T04:46:13;11.40;99.90
42187;DHT22;27858;51.414;0.018;2023-11-21T04:48:40;11.40;99.90
42187;DHT22;27858;51.414;0.018;2023-11-21T04:51:07;11.30;99.90
42187;DHT22;27858;51.414;0.018;2023-11-21T04:53:34;11.30;99.90
42187;DHT22;27858;51.414;0.018;2023-11-21T04:56:01;11.30;99.90
42187;DHT22;27858;51.414;0.018;2023-11-21T04:58:29;11.30;99.90
42187;DHT22;27858;51.414;0.018;2023-11-21T05:00:57;11.30;99.90
42187;DHT22;27858;51.414;0.018;2023-11-21T05:03:24;11.20;99.90
42187;DHT22;27858;51.414;0.018;2023-11-21T05:05:51;11.20;99.90
42187;DHT22;27858;51.414;0.018;2023-11-21T05:08:18;11.20;99.90
42187;DHT22;27858;51.414;0.018;2023-11-21T05:10:47;11.10;99.90
42187;DHT22;27858;51.414;0.018;2023-11-21T05:13:14;11.20;99.90
42187;DHT22;27858;51.414;0.018;2023-11-21T05:15:44;11.20;99.90
42187;DHT22;27858;51.414;0.018;2023-11-21T05:18:11;11.10;99.90
42187;DHT22;27858;51.414;0.018;2023-11-21T05:20:40;11.20;99.90
42187;DHT22;27858;51.414;0.018;2023-11-21T05:23:07;11.10;99.90
42187;DHT22;27858;51.414;0.018;2023-11-21T05:25:34;11.00;99.90
42187;DHT22;27858;51.414;0.018;2023-11-21T05:28:04;11.10;99.90
42187;DHT22;27858;51.414;0.018;2023-11-21T05:30:31;11.00;99.90
42187;DHT22;27858;51.414;0.018;2023-11-21T05:32:58;11.00;99.90
42187;DHT22;27858;51.414;0.018;2023-11-21T05:35:25;11.00;99.90
42187;DHT22;27858;51.414;0.018;2023-11-21T05:37:51;10.90;99.90
42187;DHT22;27858;51.414;0.018;2023-11-21T05:40:18;10.90;99.90
42187;DHT22;27858;51.414;0.018;2023-11-21T05:42:45;11.00;99.90
42187;DHT22;27858;51.414;0.018;2023-11-21T05:45:12;10.90;99.90
42187;DHT22;27858;51.414;0.018;2023-11-21T05:47:44;11.00;99.90
42187;DHT22;27858;51.414;0.018;2023-11-21T05:50:16;10.80;99.90
42187;DHT22;27858;51.414;0.018;2023-11-21T05:52:45;11.00;99.90
42187;DHT22;27858;51.414;0.018;2023-11-21T05:55:12;11.00;99.90
42187;DHT22;27858;51.414;0.018;2023-11-21T05:57:41;10.80;99.90
42187;DHT22;27858;51.414;0.018;2023-11-21T06:00:12;10.90;99.90
42187;DHT22;27858;51.414;0.018;2023-11-21T06:02:49;10.90;99.90
42187;DHT22;27858;51.414;0.018;2023-11-21T06:05:23;10.90;99.90
42187;DHT22;27858;51.414;0.018;2023-11-21T06:07:56;10.90;99.90
42187;DHT22;27858;51.414;0.018;2023-11-21T06:10:25;10.90;99.90
42187;DHT22;27858;51.414;0.018;2023-11-21T06:12:53;10.80;99.90
42187;DHT22;27858;51.414;0.018;2023-11-21T06:15:20;10.80;99.90
42187;DHT22;27858;51.414;0.018;2023-11-21T06:17:50;10.90;99.90
42187;DHT22;27858;51.414;0.018;2023-11-21T06:20:20;10.80;99.90
42187;DHT22;27858;51.414;0.018;2023-11-21T06:22:49;10.80;99.90
42187;DHT22;27858;51.414;0.018;2023-11-21T06:25:20;10.80;99.90
42187;DHT22;27858;51.414;0.018;2023-11-21T06:27:47;10.80;99.90
42187;DHT22;27858;51.414;0.018;2023-11-21T06:30:15;10.90;99.90
42187;DHT22;27858;51.414;0.018;2023-11-21T06:32:42;10.70;99.90
42187;DHT22;27858;51.414;0.018;2023-11-21T06:35:14;10.80;99.90
42187;DHT22;27858;51.414;0.018;2023-11-21T06:37:43;10.90;99.90
42187;DHT22;27858;51.414;0.018;2023-11-21T06:40:18;10.80;99.90
42187;DHT22;27858;51.414;0.018;2023-11-21T06:42:45;10.80;99.90
42187;DHT22;27858;51.414;0.018;2023-11-21T06:45:13;10.80;99.90
42187;DHT22;27858;51.414;0.018;2023-11-21T06:47:42;10.70;99.90
42187;DHT22;27858;51.414;0.018;2023-11-21T06:50:09;10.70;99.90
42187;DHT22;27858;51.414;0.018;2023-11-21T06:52:36;10.70;99.90
42187;DHT22;27858;51.414;0.018;2023-11-21T06:55:04;10.70;99.90
42187;DHT22;27858;51.414;0.018;2023-11-21T06:57:31;10.60;99.90
42187;DHT22;27858;51.414;0.018;2023-11-21T06:59:59;10.70;99.90
42187;DHT22;27858;51.414;0.018;2023-11-21T07:02:26;10.60;99.90
42187;DHT22;27858;51.414;0.018;2023-11-21T07:04:53;10.70;99.90
42187;DHT22;27858;51.414;0.018;2023-11-21T07:07:20;10.60;99.90
42187;DHT22;27858;51.414;0.018;2023-11-21T07:09:46;10.60;99.90
42187;DHT22;27858;51.414;0.018;2023-11-21T07:12:14;10.50;99.90
42187;DHT22;27858;51.414;0.018;2023-11-21T07:14:41;10.50;99.90
42187;DHT22;27858;51.414;0.018;2023-11-21T07:17:11;10.60;99.90
42187;DHT22;27858;51.414;0.018;2023-11-21T07:19:39;10.60;99.90
42187;DHT22;27858;51.414;0.018;2023-11-21T07:22:06;10.40;99.90
42187;DHT22;27858;51.414;0.018;2023-11-21T07:24:33;10.40;99.90
42187;DHT22;27858;51.414;0.018;2023-11-21T07:27:03;10.50;99.90
42187;DHT22;27858;51.414;0.018;2023-11-21T07:29:32;10.50;99.90
42187;DHT22;27858;51.414;0.018;2023-11-21T07:31:59;10.40;99.90
42187;DHT22;27858;51.414;0.018;2023-11-21T07:34:27;10.40;99.90
42187;DHT22;27858;51.414;0.018;2023-11-21T07:36:55;10.40;99.90
42187;DHT22;27858;51.414;0.018;2023-11-21T07:39:22;10.50;99.90
42187;DHT22;27858;51.414;0.018;2023-11-21T07:41:49;10.40;99.90
42187;DHT22;27858;51.414;0.018;2023-11-21T07:44:18;10.40;99.90
42187;DHT22;27858;51.414;0.018;2023-11-21T07:46:48;10.40;99.90
42187;DHT22;27858;51.414;0.018;2023-11-21T07:49:18;10.40;99.90
42187;DHT22;27858;51.414;0.018;2023-11-21T07:51:47;10.40;99.90
42187;DHT22;27858;51.414;0.018;2023-11-21T07:54:15;10.40;99.90
42187;DHT22;27858;51.414;0.018;2023-11-21T07:56:44;10.50;99.90
42187;DHT22;27858;51.414;0.018;2023-11-21T07:59:11;10.40;99.90
42187;DHT22;27858;51.414;0.018;2023-11-21T08:01:39;10.40;99.90
42187;DHT22;27858;51.414;0.018;2023-11-21T08:04:07;10.40;99.90
42187;DHT22;27858;51.414;0.018;2023-11-21T08:06:35;10.50;99.90
42187;DHT22;27858;51.414;0.018;2023-11-21T08:09:02;10.40;99.90
42187;DHT22;27858;51.414;0.018;2023-11-21T08:11:28;10.50;99.90
42187;DHT22;27858;51.414;0.018;2023-11-21T08:13:59;10.50;99.90
42187;DHT22;27858;51.414;0.018;2023-11-21T08:16:26;10.40;99.90
42187;DHT22;27858;51.414;0.018;2023-11-21T08:18:54;10.50;99.90
42187;DHT22;27858;51.414;0.018;2023-11-21T08:21:21;10.40;99.90
42187;DHT22;27858;51.414;0.018;2023-11-21T08:23:50;10.50;99.90
42187;DHT22;27858;51.414;0.018;2023-11-21T08:26:22;10.40;99.90
42187;DHT22;27858;51.414;0.018;2023-11-21T08:28:50;10.50;99.90
42187;DHT22;27858;51.414;0.018;2023-11-21T08:31:29;10.50;99.90
42187;DHT22;27858;51.414;0.018;2023-11-21T08:33:56;10.50;99.90
42187;DHT22;27858;51.414;0.018;2023-11-21T08:36:23;10.50;99.90
42187;DHT22;27858;51.414;0.018;2023-11-21T08:38:53;10.50;99.90
42187;DHT22;27858;51.414;0.018;2023-11-21T08:41:20;10.50;99.90
42187;DHT22;27858;51.414;0.018;2023-11-21T08:43:51;10.50;99.90
42187;DHT22;27858;51.414;0.018;2023-11-21T08:46:19;10.50;99.90
42187;DHT22;27858;51.414;0.018;2023-11-21T08:48:47;10.50;99.90
42187;DHT22;27858;51.414;0.018;2023-11-21T08:51:14;10.60;99.90
42187;DHT22;27858;51.414;0.018;2023-11-21T08:53:41;10.50;99.90
42187;DHT22;27858;51.414;0.018;2023-11-21T08:56:12;10.50;99.90
42187;DHT22;27858;51.414;0.018;2023-11-21T08:58:40;10.50;99.90
42187;DHT22;27858;51.414;0.018;2023-11-21T09:01:08;10.50;99.90
42187;DHT22;27858;51.414;0.018;2023-11-21T09:03:35;10.50;99.90
42187;DHT22;27858;51.414;0.018;2023-11-21T09:06:02;10.60;99.90
42187;DHT22;27858;51.414;0.018;2023-11-21T09:08:30;10.60;99.90
42187;DHT22;27858;51.414;0.018;2023-11-21T09:11:00;10.60;99.90
42187;DHT22;27858;51.414;0.018;2023-11-21T09:13:27;10.60;99.90
42187;DHT22;27858;51.414;0.018;2023-11-21T09:15:54;10.60;99.90
42187;DHT22;27858;51.414;0.018;2023-11-21T09:18:21;10.60;99.90
42187;DHT22;27858;51.414;0.018;2023-11-21T09:20:48;10.60;99.90
42187;DHT22;27858;51.414;0.018;2023-11-21T09:23:15;10.50;99.90
42187;DHT22;27858;51.414;0.018;2023-11-21T09:25:44;10.50;99.90
42187;DHT22;27858;51.414;0.018;2023-11-21T09:28:13;10.50;99.90
42187;DHT22;27858;51.414;0.018;2023-11-21T09:30:41;10.60;99.90
42187;DHT22;27858;51.414;0.018;2023-11-21T09:33:08;10.60;99.90
42187;DHT22;27858;51.414;0.018;2023-11-21T09:35:38;10.60;99.90
42187;DHT22;27858;51.414;0.018;2023-11-21T09:38:05;10.60;99.90
42187;DHT22;27858;51.414;0.018;2023-11-21T09:40:38;10.70;99.90
42187;DHT22;27858;51.414;0.018;2023-11-21T09:43:18;10.70;99.90
42187;DHT22;27858;51.414;0.018;2023-11-21T09:45:47;10.80;99.90
42187;DHT22;27858;51.414;0.018;2023-11-21T09:48:15;10.80;99.90
42187;DHT22;27858;51.414;0.018;2023-11-21T09:50:43;10.80;99.90
42187;DHT22;27858;51.414;0.018;2023-11-21T09:53:20;10.80;99.90
42187;DHT22;27858;51.414;0.018;2023-11-21T09:55:54;10.90;99.90
42187;DHT22;27858;51.414;0.018;2023-11-21T09:58:21;10.90;99.90
42187;DHT22;27858;51.414;0.018;2023-11-21T10:00:55;10.90;99.90
42187;DHT22;27858;51.414;0.018;2023-11-21T10:03:23;11.00;99.90
42187;DHT22;27858;51.414;0.018;2023-11-21T10:05:51;10.90;99.90
42187;DHT22;27858;51.414;0.018;2023-11-21T10:08:20;11.00;99.90
42187;DHT22;27858;51.414;0.018;2023-11-21T10:10:52;11.10;99.90
42187;DHT22;27858;51.414;0.018;2023-11-21T10:13:20;11.10;99.90
42187;DHT22;27858;51.414;0.018;2023-11-21T10:15:50;11.10;99.90
42187;DHT22;27858;51.414;0.018;2023-11-21T10:18:18;11.10;99.90
42187;DHT22;27858;51.414;0.018;2023-11-21T10:20:45;11.10;99.90
42187;DHT22;27858;51.414;0.018;2023-11-21T10:23:20;11.10;99.90
42187;DHT22;27858;51.414;0.018;2023-11-21T10:25:48;11.10;99.90
42187;DHT22;27858;51.414;0.018;2023-11-21T10:28:16;11.20;99.90
42187;DHT22;27858;51.414;0.018;2023-11-21T10:30:43;11.10;99.90
42187;DHT22;27858;51.414;0.018;2023-11-21T10:33:11;11.20;99.90
42187;DHT22;27858;51.414;0.018;2023-11-21T10:35:45;11.30;99.90
42187;DHT22;27858;51.414;0.018;2023-11-21T10:38:22;11.30;99.90
42187;DHT22;27858;51.414;0.018;2023-11-21T10:40:51;11.40;99.90
42187;DHT22;27858;51.414;0.018;2023-11-21T10:43:18;11.40;99.90
42187;DHT22;27858;51.414;0.018;2023-11-21T10:45:45;11.30;99.90
42187;DHT22;27858;51.414;0.018;2023-11-21T10:48:14;11.40;99.90
42187;DHT22;27858;51.414;0.018;2023-11-21T10:50:47;11.30;99.90
42187;DHT22;27858;51.414;0.018;2023-11-21T10:53:14;11.40;99.90
42187;DHT22;27858;51.414;0.018;2023-11-21T10:55:42;11.30;99.90
42187;DHT22;27858;51.414;0.018;2023-11-21T10:58:13;11.40;99.90
42187;DHT22;27858;51.414;0.018;2023-11-21T11:00:41;11.40;99.90
42187;DHT22;27858;51.414;0.018;2023-11-21T11:03:12;11.50;99.90
42187;DHT22;27858;51.414;0.018;2023-11-21T11:05:46;11.50;99.90
42187;DHT22;27858;51.414;0.018;2023-11-21T11:08:21;11.50;99.90
42187;DHT22;27858;51.414;0.018;2023-11-21T11:10:54;11.60;99.90
42187;DHT22;27858;51.414;0.018;2023-11-21T11:13:21;11.60;99.90
42187;DHT22;27858;51.414;0.018;2023-11-21T11:15:49;11.60;99.90
42187;DHT22;27858;51.414;0.018;2023-11-21T11:18:17;11.60;99.90
42187;DHT22;27858;51.414;0.018;2023-11-21T11:20:46;11.70;99.90
42187;DHT22;27858;51.414;0.018;2023-11-21T11:24:27;11.70;99.90
42187;DHT22;27858;51.414;0.018;2023-11-21T11:37:46;11.80;99.90
42187;DHT22;27858;51.414;0.018;2023-11-21T11:40:13;11.80;99.90
42187;DHT22;27858;51.414;0.018;2023-11-21T11:43:01;11.80;99.90
42187;DHT22;27858;51.414;0.018;2023-11-21T11:45:34;11.90;99.90
42187;DHT22;27858;51.414;0.018;2023-11-21T11:48:02;11.90;99.90
42187;DHT22;27858;51.414;0.018;2023-11-21T11:50:30;11.90;99.90
42187;DHT22;27858;51.414;0.018;2023-11-21T11:53:12;12.00;99.90
42187;DHT22;27858;51.414;0.018;2023-11-21T11:55:40;11.90;99.90
42187;DHT22;27858;51.414;0.018;2023-11-21T11:58:07;12.00;99.90
42187;DHT22;27858;51.414;0.018;2023-11-21T12:00:35;12.00;99.90
42187;DHT22;27858;51.414;0.018;2023-11-21T12:03:08;12.00;99.90
42187;DHT22;27858;51.414;0.018;2023-11-21T12:05:36;12.10;99.90
42187;DHT22;27858;51.414;0.018;2023-11-21T12:08:08;12.10;99.90
42187;DHT22;27858;51.414;0.018;2023-11-21T12:10:37;12.10;99.90
42187;DHT22;27858;51.414;0.018;2023-11-21T12:13:09;12.10;99.90
42187;DHT22;27858;51.414;0.018;2023-11-21T12:15:38;12.00;99.90
42187;DHT22;27858;51.414;0.018;2023-11-21T12:18:07;12.00;99.90
42187;DHT22;27858;51.414;0.018;2023-11-21T12:20:34;12.10;99.90
42187;DHT22;27858;51.414;0.018;2023-11-21T12:23:06;12.10;99.90
42187;DHT22;27858;51.414;0.018;2023-11-21T12:25:36;12.10;99.90
42187;DHT22;27858;51.414;0.018;2023-11-21T12:28:04;12.10;99.90
42187;DHT22;27858;51.414;0.018;2023-11-21T12:30:35;12.10;99.90
42187;DHT22;27858;51.414;0.018;2023-11-21T12:33:03;12.10;99.90
42187;DHT22;27858;51.414;0.018;2023-11-21T12:35:32;12.10;99.90
42187;DHT22;27858;51.414;0.018;2023-11-21T12:38:04;12.20;99.90
42187;DHT22;27858;51.414;0.018;2023-11-21T12:40:31;12.10;99.90
42187;DHT22;27858;51.414;0.018;2023-11-21T12:42:59;12.10;99.90
42187;DHT22;27858;51.414;0.018;2023-11-21T12:45:29;12.20;99.90
42187;DHT22;27858;51.414;0.018;2023-11-21T12:47:59;12.10;99.90
42187;DHT22;27858;51.414;0.018;2023-11-21T12:50:28;12.10;99.90
42187;DHT22;27858;51.414;0.018;2023-11-21T12:53:00;12.10;99.90
42187;DHT22;27858;51.414;0.018;2023-11-21T12:55:33;12.10;99.90
42187;DHT22;27858;51.414;0.018;2023-11-21T12:58:06;12.20;99.90
42187;DHT22;27858;51.414;0.018;2023-11-21T13:00:42;12.20;99.90
42187;DHT22;27858;51.414;0.018;2023-11-21T13:03:11;12.20;99.90
42187;DHT22;27858;51.414;0.018;2023-11-21T13:05:47;12.20;99.90
42187;DHT22;27858;51.414;0.018;2023-11-21T13:08:20;12.20;99.90
42187;DHT22;27858;51.414;0.018;2023-11-21T13:10:51;12.30;99.90
42187;DHT22;27858;51.414;0.018;2023-11-21T13:13:20;12.30;99.90
42187;DHT22;27858;51.414;0.018;2023-11-21T13:15:55;12.30;99.90
42187;DHT22;27858;51.414;0.018;2023-11-21T13:18:24;12.30;99.90
42187;DHT22;27858;51.414;0.018;2023-11-21T13:20:58;12.30;99.90
42187;DHT22;27858;51.414;0.018;2023-11-21T13:23:34;12.30;99.90
42187;DHT22;27858;51.414;0.018;2023-11-21T13:26:03;12.20;99.90
42187;DHT22;27858;51.414;0.018;2023-11-21T13:28:33;12.30;99.90
42187;DHT22;27858;51.414;0.018;2023-11-21T13:31:02;12.30;99.90
42187;DHT22;27858;51.414;0.018;2023-11-21T13:33:38;12.40;99.90
42187;DHT22;27858;51.414;0.018;2023-11-21T13:36:06;12.50;99.90
42187;DHT22;27858;51.414;0.018;2023-11-21T13:38:36;12.50;99.90
42187;DHT22;27858;51.414;0.018;2023-11-21T13:41:08;12.50;99.90
42187;DHT22;27858;51.414;0.018;2023-11-21T13:43:37;12.50;99.90
42187;DHT22;27858;51.414;0.018;2023-11-21T13:46:05;12.50;99.90
42187;DHT22;27858;51.414;0.018;2023-11-21T13:48:40;12.50;99.90
42187;DHT22;27858;51.414;0.018;2023-11-21T13:51:09;12.40;99.90
42187;DHT22;27858;51.414;0.018;2023-11-21T13:53:48;12.40;99.90
42187;DHT22;27858;51.414;0.018;2023-11-21T13:56:20;12.40;99.90
42187;DHT22;27858;51.414;0.018;2023-11-21T13:58:51;12.30;99.90
42187;DHT22;27858;51.414;0.018;2023-11-21T14:01:24;12.30;99.90
42187;DHT22;27858;51.414;0.018;2023-11-21T14:04:01;12.30;99.90
42187;DHT22;27858;51.414;0.018;2023-11-21T14:06:35;12.40;99.90
42187;DHT22;27858;51.414;0.018;2023-11-21T14:09:15;12.40;99.90
42187;DHT22;27858;51.414;0.018;2023-11-21T14:11:53;12.40;99.90
42187;DHT22;27858;51.414;0.018;2023-11-21T14:14:24;12.40;99.90
42187;DHT22;27858;51.414;0.018;2023-11-21T14:16:54;12.30;99.90
42187;DHT22;27858;51.414;0.018;2023-11-21T14:19:22;12.40;99.90
42187;DHT22;27858;51.414;0.018;2023-11-21T14:21:54;12.30;99.90
42187;DHT22;27858;51.414;0.018;2023-11-21T14:24:21;12.30;99.90
42187;DHT22;27858;51.414;0.018;2023-11-21T14:26:52;12.20;99.90
42187;DHT22;27858;51.414;0.018;2023-11-21T14:29:20;12.20;99.90
42187;DHT22;27858;51.414;0.018;2023-11-21T14:31:47;12.10;99.90
42187;DHT22;27858;51.414;0.018;2023-11-21T14:34:15;12.10;99.90
42187;DHT22;27858;51.414;0.018;2023-11-21T14:36:46;12.00;99.90
42187;DHT22;27858;51.414;0.018;2023-11-21T14:39:13;12.00;99.90
42187;DHT22;27858;51.414;0.018;2023-11-21T14:41:51;11.90;99.90
42187;DHT22;27858;51.414;0.018;2023-11-21T14:44:20;11.90;99.90
42187;DHT22;27858;51.414;0.018;2023-11-21T14:46:50;11.90;99.90
42187;DHT22;27858;51.414;0.018;2023-11-21T14:49:19;11.90;99.90
42187;DHT22;27858;51.414;0.018;2023-11-21T14:51:47;11.90;99.90
42187;DHT22;27858;51.414;0.018;2023-11-21T14:54:28;11.80;99.90
42187;DHT22;27858;51.414;0.018;2023-11-21T14:57:04;11.90;99.90
42187;DHT22;27858;51.414;0.018;2023-11-21T14:59:36;11.80;99.90
42187;DHT22;27858;51.414;0.018;2023-11-21T15:02:03;11.80;99.90
42187;DHT22;27858;51.414;0.018;2023-11-21T15:04:42;11.80;99.90
42187;DHT22;27858;51.414;0.018;2023-11-21T15:07:10;11.70;99.90
42187;DHT22;27858;51.414;0.018;2023-11-21T15:09:39;11.70;99.90
42187;DHT22;27858;51.414;0.018;2023-11-21T15:12:12;11.70;99.90
42187;DHT22;27858;51.414;0.018;2023-11-21T15:14:47;11.60;99.90
42187;DHT22;27858;51.414;0.018;2023-11-21T15:17:16;11.60;99.90
42187;DHT22;27858;51.414;0.018;2023-11-21T15:19:51;11.50;99.90
42187;DHT22;27858;51.414;0.018;2023-11-21T15:22:18;11.50;99.90
42187;DHT22;27858;51.414;0.018;2023-11-21T15:24:45;11.50;99.90
42187;DHT22;27858;51.414;0.018;2023-11-21T15:27:17;11.40;99.90
42187;DHT22;27858;51.414;0.018;2023-11-21T15:29:45;11.40;99.90
42187;DHT22;27858;51.414;0.018;2023-11-21T15:32:12;11.50;99.90
42187;DHT22;27858;51.414;0.018;2023-11-21T15:34:39;11.40;99.90
42187;DHT22;27858;51.414;0.018;2023-11-21T15:37:07;11.40;99.90
42187;DHT22;27858;51.414;0.018;2023-11-21T15:39:38;11.40;99.90
42187;DHT22;27858;51.414;0.018;2023-11-21T15:42:06;11.30;99.90
42187;DHT22;27858;51.414;0.018;2023-11-21T15:44:36;11.40;99.90
42187;DHT22;27858;51.414;0.018;2023-11-21T15:47:05;11.30;99.90
42187;DHT22;27858;51.414;0.018;2023-11-21T15:49:35;11.30;99.90
42187;DHT22;27858;51.414;0.018;2023-11-21T15:52:05;11.20;99.90